createdAt,value
2022-09-01T00:03:37.118Z,11.50
2022-09-01T00:08:36.266Z,8.77
2022-09-01T00:13:35.548Z,9.48
2022-09-01T00:18:38.132Z,6.60
2022-09-01T00:23:37.543Z,11.10
2022-09-01T00:28:37.951Z,9.13
2022-09-01T00:33:39.137Z,10.32
2022-09-01T00:38:38.262Z,10.00
2022-09-01T00:43:42.597Z,8.80
2022-09-01T00:48:44.517Z,9.85
2022-09-01T00:53:52.441Z,8.48
2022-09-01T00:58:52.765Z,7.78
2022-09-01T01:03:53.563Z,9.90
2022-09-01T01:09:05.719Z,12.67
2022-09-01T01:14:12.490Z,7.10
2022-09-01T01:19:38.849Z,7.63
2022-09-01T01:24:39.587Z,10.52
2022-09-01T01:29:44.467Z,7.80
2022-09-01T01:34:47.530Z,7.40
2022-09-01T01:39:49.273Z,8.88
2022-09-01T01:44:50.033Z,8.77
2022-09-01T01:49:49.335Z,6.50
2022-09-01T01:54:49.761Z,11.27
2022-09-01T01:59:48.943Z,8.60
2022-09-01T02:04:48.086Z,9.55
2022-09-01T02:09:49.588Z,7.53
2022-09-01T02:14:51.168Z,8.45
2022-09-01T02:24:52.710Z,7.75
2022-09-01T02:29:55.640Z,8.73
2022-09-01T02:35:01.472Z,8.43
2022-09-01T02:40:02.364Z,6.80
2022-09-01T02:50:46.026Z,15.57
2022-09-01T02:55:47.218Z,11.93
2022-09-01T03:00:46.947Z,9.40
2022-09-01T03:05:46.054Z,7.70
2022-09-01T03:10:47.587Z,7.13
2022-09-01T03:15:46.700Z,10.93
2022-09-01T03:20:53.212Z,7.57
2022-09-01T03:25:53.732Z,6.45
2022-09-01T03:30:55.364Z,10.07
2022-09-01T03:35:56.285Z,8.27
2022-09-01T03:41:02.373Z,8.73
2022-09-01T03:46:05.685Z,10.63
2022-09-01T03:51:06.430Z,7.97
2022-09-01T03:56:09.137Z,7.57
2022-09-01T04:01:16.771Z,12.80
2022-09-01T04:06:24.603Z,14.73
2022-09-01T04:11:28.785Z,10.65
2022-09-01T04:16:56.884Z,7.95
2022-09-01T04:22:16.755Z,11.45
2022-09-01T04:27:27.337Z,9.63
2022-09-01T04:32:28.240Z,10.98
2022-09-01T04:37:30.379Z,9.70
2022-09-01T04:42:37.472Z,18.55
2022-09-01T04:47:37.812Z,17.52
2022-09-01T04:52:40.314Z,13.50
2022-09-01T04:57:49.972Z,12.38
2022-09-01T05:02:57.844Z,11.88
2022-09-01T05:08:23.398Z,12.80
2022-09-01T05:13:49.425Z,14.60
2022-09-01T05:18:58.123Z,9.00
2022-09-01T05:24:05.143Z,12.65
2022-09-01T05:29:10.876Z,13.40
2022-09-01T05:34:20.444Z,13.73
2022-09-01T05:39:19.467Z,7.20
2022-09-01T05:44:22.776Z,10.77
2022-09-01T05:49:24.787Z,11.00
2022-09-01T05:54:25.794Z,10.32
2022-09-01T05:59:31.584Z,7.03
2022-09-01T06:04:35.705Z,10.70
2022-09-01T06:09:48.613Z,11.30
2022-09-01T06:14:54.549Z,12.98
2022-09-01T06:19:56.541Z,9.40
2022-09-01T06:25:02.188Z,8.77
2022-09-01T06:30:15.443Z,6.22
2022-09-01T06:35:32.589Z,10.50
2022-09-01T06:40:39.785Z,6.93
2022-09-01T06:45:44.517Z,8.95
2022-09-01T06:56:05.723Z,12.20
2022-09-01T07:01:12.102Z,5.45
2022-09-01T07:06:59.018Z,10.30
2022-09-01T07:17:23.667Z,10.30
2022-09-01T07:22:36.954Z,9.43
2022-09-01T07:27:41.509Z,9.90
2022-09-01T07:44:05.492Z,9.93
2022-09-01T07:54:29.310Z,8.88
2022-09-01T07:59:30.203Z,9.50
2022-09-01T08:04:43.283Z,13.90
2022-09-01T08:09:45.262Z,9.60
2022-09-01T08:20:20.705Z,11.88
2022-09-01T08:25:59.503Z,10.32
2022-09-01T08:31:00.285Z,13.43
2022-09-01T08:36:11.703Z,10.57
2022-09-01T08:41:28.569Z,13.93
2022-09-01T08:46:36.400Z,17.77
2022-09-01T08:51:41.405Z,14.85
2022-09-01T08:56:49.801Z,13.88
2022-09-01T09:01:58.727Z,13.13
2022-09-01T09:07:07.365Z,16.20
2022-09-01T09:12:23.184Z,15.38
2022-09-01T09:17:27.154Z,14.57
2022-09-01T09:22:29.789Z,13.50
2022-09-01T09:27:31.653Z,18.63
2022-09-01T09:33:15.320Z,13.88
2022-09-01T09:38:37.613Z,13.68
2022-09-01T09:43:42.218Z,19.95
2022-09-01T09:48:43.437Z,10.82
2022-09-01T09:53:44.941Z,13.25
2022-09-01T09:58:46.722Z,13.18
2022-09-01T10:03:49.381Z,15.75
2022-09-01T10:08:52.562Z,19.70
2022-09-01T10:13:53.275Z,21.45
2022-09-01T10:18:53.108Z,19.67
2022-09-01T10:24:17.138Z,22.10
2022-09-01T10:29:17.778Z,25.13
2022-09-01T10:34:19.884Z,18.65
2022-09-01T10:39:28.491Z,30.13
2022-09-01T10:44:35.668Z,25.00
2022-09-01T10:50:01.706Z,22.90
2022-09-01T10:55:15.005Z,23.38
2022-09-01T11:06:13.640Z,9.57
2022-09-01T11:11:25.802Z,11.32
2022-09-01T11:16:50.523Z,8.35
2022-09-01T11:22:04.245Z,12.05
2022-09-01T11:34:00.044Z,10.40
2022-09-01T11:39:09.034Z,9.00
2022-09-01T11:44:15.613Z,6.28
2022-09-01T11:49:29.859Z,5.13
2022-09-01T11:54:29.807Z,8.98
2022-09-01T11:59:34.134Z,9.27
2022-09-01T12:04:38.133Z,7.78
2022-09-01T12:09:46.409Z,12.48
2022-09-01T12:15:28.544Z,5.88
2022-09-01T12:20:34.690Z,7.03
2022-09-01T12:25:45.446Z,7.55
2022-09-01T12:30:47.263Z,9.00
2022-09-01T12:36:06.760Z,12.10
2022-09-01T12:41:25.174Z,10.18
2022-09-01T12:46:44.064Z,5.53
2022-09-01T12:51:45.426Z,8.20
2022-09-01T12:56:52.047Z,4.75
2022-09-01T13:01:51.941Z,9.15
2022-09-01T13:06:53.658Z,10.65
2022-09-01T13:12:09.677Z,7.50
2022-09-01T13:17:32.156Z,10.40
2022-09-01T13:22:54.760Z,9.80
2022-09-01T13:28:15.651Z,6.45
2022-09-01T13:33:19.627Z,7.68
2022-09-01T13:38:21.834Z,12.75
2022-09-01T13:43:22.899Z,7.65
2022-09-01T13:48:22.913Z,7.63
2022-09-01T13:53:36.009Z,7.45
2022-09-01T13:58:38.381Z,7.65
2022-09-01T14:03:37.828Z,10.90
2022-09-01T14:08:38.634Z,7.53
2022-09-01T14:13:42.848Z,10.27
2022-09-01T14:18:42.673Z,7.22
2022-09-01T14:29:02.787Z,11.13
2022-09-01T14:34:01.722Z,9.25
2022-09-01T14:39:02.298Z,10.80
2022-09-01T14:44:15.694Z,11.50
2022-09-01T14:49:22.209Z,7.68
2022-09-01T14:54:26.245Z,8.27
2022-09-01T14:59:25.688Z,10.60
2022-09-01T15:04:24.945Z,10.45
2022-09-01T15:09:34.249Z,10.82
2022-09-01T15:14:43.115Z,9.52
2022-09-01T15:19:42.317Z,12.07
2022-09-01T15:24:56.277Z,11.38
2022-09-01T15:29:59.745Z,12.65
2022-09-01T15:34:59.443Z,9.60
2022-09-01T15:39:59.844Z,12.02
2022-09-01T15:44:59.074Z,9.55
2022-09-01T15:54:59.556Z,13.82
2022-09-01T15:59:58.623Z,10.77
2022-09-01T16:04:57.969Z,11.32
2022-09-01T16:09:59.383Z,13.77
2022-09-01T16:15:09.433Z,10.35
2022-09-01T16:20:15.164Z,11.52
2022-09-01T16:25:16.797Z,11.45
2022-09-01T16:30:30.391Z,8.60
2022-09-01T16:35:58.923Z,10.50
2022-09-01T16:41:12.024Z,11.63
2022-09-01T16:46:25.355Z,12.85
2022-09-01T16:51:34.960Z,12.27
2022-09-01T16:56:55.402Z,8.40
2022-09-01T17:02:06.244Z,4.68
2022-09-01T17:07:13.335Z,9.88
2022-09-01T17:12:28.006Z,11.15
2022-09-01T17:25:19.387Z,8.23
2022-09-01T17:32:04.300Z,9.60
2022-09-01T18:46:24.158Z,13.65
2022-09-01T18:51:32.657Z,11.90
2022-09-01T18:56:42.595Z,9.75
2022-09-01T19:01:51.482Z,6.95
2022-09-01T19:07:01.657Z,11.23
2022-09-01T19:12:14.155Z,7.97
2022-09-01T19:17:31.129Z,8.82
2022-09-01T19:22:40.219Z,7.32
2022-09-01T19:27:39.547Z,6.40
2022-09-01T19:32:40.875Z,9.57
2022-09-01T19:37:40.366Z,9.10
2022-09-01T19:42:44.550Z,6.10
2022-09-01T19:48:10.011Z,8.52
2022-09-01T19:53:38.152Z,6.90
2022-09-01T19:58:47.046Z,8.20
2022-09-01T20:04:12.775Z,11.27
2022-09-01T20:09:18.140Z,7.75
2022-09-01T20:14:34.965Z,8.02
2022-09-01T20:19:42.521Z,6.32
2022-09-01T20:24:41.636Z,7.85
2022-09-01T20:29:48.388Z,11.73
2022-09-01T20:34:54.525Z,10.95
2022-09-01T20:40:01.708Z,10.73
2022-09-01T20:45:06.766Z,9.10
2022-09-01T20:50:12.752Z,8.57
2022-09-01T20:55:16.275Z,6.13
2022-09-01T21:00:23.099Z,7.75
2022-09-01T21:05:34.084Z,6.68
2022-09-01T21:10:47.937Z,6.97
2022-09-01T21:15:52.940Z,8.07
2022-09-01T21:21:05.427Z,4.22
2022-09-01T21:26:04.617Z,4.15
2022-09-01T21:31:41.436Z,5.60
2022-09-01T21:36:49.706Z,4.85
2022-09-01T21:41:52.569Z,4.50
2022-09-01T21:46:51.622Z,4.20
2022-09-01T21:51:52.173Z,4.18
2022-09-01T21:56:53.485Z,5.20
2022-09-01T22:01:52.639Z,5.93
2022-09-01T22:06:53.416Z,5.10
2022-09-01T22:11:52.910Z,6.38
2022-09-01T22:16:52.130Z,6.85
2022-09-01T22:21:53.108Z,7.22
2022-09-01T22:26:52.150Z,5.87
2022-09-01T22:31:51.029Z,5.90
2022-09-01T22:36:52.234Z,9.55
2022-09-01T22:41:51.162Z,5.97
2022-09-01T22:46:50.495Z,8.88
2022-09-01T22:51:49.462Z,5.68
2022-09-01T22:56:50.316Z,7.22
2022-09-01T23:01:51.599Z,11.13
2022-09-01T23:06:52.874Z,5.53
2022-09-01T23:11:53.501Z,11.85
2022-09-01T23:16:52.997Z,6.50
2022-09-01T23:21:52.564Z,8.88
2022-09-01T23:26:52.765Z,6.85
2022-09-01T23:31:51.804Z,8.07
2022-09-01T23:36:50.912Z,9.65
2022-09-01T23:41:49.873Z,7.82
2022-09-01T23:46:50.428Z,7.53
2022-09-01T23:51:49.581Z,9.25
2022-09-01T23:56:48.719Z,9.35
